Terminal Aerodrome Forecast
Issued by NWS

Home | Current Version | Previous Version | Text Only | Print | Product List | Glossary On
Versions: 1 2 3 4 5 6 7 8 9 10 11 12 13 14 15 16 17 18 19 20 21 22 23 24 25 26 27 28 29 30 31 32 33 34
000
FTUS43 KDTX 231120
TAFYIP
TAF
KYIP 231120Z 2312/2412 18007KT P6SM -SHRA BKN025 OVC050
      TEMPO 2314/2318 SCT015 BKN035
     FM231800 16010KT 6SM -RA BR SCT015 BKN035
      TEMPO 2320/2324 4SM -RA BR OVC018
     FM240000 14012KT 2SM RA BR OVC006
     FM240700 19015KT 2SM RA BR OVC004
     FM241100 21016KT 5SM -SHRA OVC010=

USA.gov is the U.S. government's official web portal to all federal, state and local government web resources and services.